createdAt,value
2023-04-09T00:00:23.110Z,40.40
2023-04-09T00:05:24.525Z,42.30
2023-04-09T00:10:25.965Z,43.92
2023-04-09T00:15:31.151Z,39.33
2023-04-09T00:20:33.271Z,41.72
2023-04-09T00:25:34.962Z,39.95
2023-04-09T00:30:36.459Z,42.35
2023-04-09T00:35:37.961Z,45.03
2023-04-09T00:40:39.462Z,46.08
2023-04-09T00:45:41.424Z,40.75
2023-04-09T00:50:43.168Z,40.97
2023-04-09T00:55:45.795Z,42.42
2023-04-09T01:00:47.335Z,37.80
2023-04-09T01:06:05.879Z,45.88
2023-04-09T01:11:24.084Z,45.40
2023-04-09T01:16:25.802Z,46.53
2023-04-09T01:21:32.066Z,43.55
2023-04-09T01:27:03.197Z,39.53
2023-04-09T01:32:07.152Z,41.72
2023-04-09T01:37:09.460Z,42.33
2023-04-09T01:42:12.865Z,44.33
2023-04-09T01:47:14.379Z,45.05
2023-04-09T01:52:15.892Z,43.10
2023-04-09T01:57:17.343Z,43.40
2023-04-09T02:02:27.913Z,42.92
2023-04-09T02:07:40.878Z,45.40
2023-04-09T02:12:48.328Z,40.30
2023-04-09T02:17:50.330Z,44.33
2023-04-09T02:22:51.807Z,48.33
2023-04-09T02:27:53.251Z,47.05
2023-04-09T02:32:54.734Z,44.65
2023-04-09T02:37:56.222Z,47.25
2023-04-09T02:42:58.368Z,44.38
2023-04-09T02:47:59.857Z,48.72
2023-04-09T02:53:01.316Z,49.88
2023-04-09T02:58:02.757Z,48.55
2023-04-09T03:03:04.591Z,46.65
2023-04-09T03:08:06.579Z,48.20
2023-04-09T03:13:08.159Z,48.35
2023-04-09T03:18:09.701Z,47.80
2023-04-09T03:23:11.745Z,50.25
2023-04-09T03:28:13.308Z,47.47
2023-04-09T03:33:14.868Z,52.30
2023-04-09T03:38:16.437Z,51.42
2023-04-09T03:43:17.993Z,48.33
2023-04-09T03:48:19.534Z,51.47
2023-04-09T03:53:21.154Z,49.78
2023-04-09T03:58:22.736Z,51.80
2023-04-09T04:03:24.397Z,51.15
2023-04-09T04:08:26.074Z,55.25
2023-04-09T04:13:27.664Z,47.88
2023-04-09T04:18:29.270Z,56.38
2023-04-09T04:23:30.853Z,52.80
2023-04-09T04:28:32.427Z,53.05
2023-04-09T04:33:34.002Z,56.40
2023-04-09T04:38:36.044Z,49.60
2023-04-09T04:43:37.806Z,54.45
2023-04-09T04:48:39.399Z,49.60
2023-04-09T04:53:41.213Z,53.70
2023-04-09T04:58:44.006Z,50.25
2023-04-09T05:03:45.684Z,54.60
2023-04-09T05:08:47.301Z,52.10
2023-04-09T05:13:48.897Z,54.40
2023-04-09T05:18:51.107Z,50.50
2023-04-09T05:23:52.778Z,53.88
2023-04-09T05:28:54.532Z,52.53
2023-04-09T05:33:56.068Z,50.47
2023-04-09T05:38:57.636Z,53.88
2023-04-09T05:44:00.847Z,54.28
2023-04-09T05:49:02.599Z,62.42
2023-04-09T05:54:04.175Z,55.80
2023-04-09T05:59:05.629Z,57.33
2023-04-09T06:04:07.368Z,49.00
2023-04-09T06:09:08.911Z,56.35
2023-04-09T06:14:12.357Z,58.15
2023-04-09T06:19:16.339Z,63.67
2023-04-09T06:24:17.781Z,63.00
2023-04-09T06:29:19.221Z,60.88
2023-04-09T06:34:20.938Z,55.17
2023-04-09T06:39:22.363Z,56.38
2023-04-09T06:44:24.386Z,58.20
2023-04-09T06:49:26.214Z,52.70
2023-04-09T06:54:27.665Z,49.92
2023-04-09T06:59:29.134Z,55.35
2023-04-09T07:04:30.984Z,54.22
2023-04-09T07:09:32.470Z,50.30
2023-04-09T07:14:33.923Z,45.63
2023-04-09T07:19:35.354Z,52.20
2023-04-09T07:24:37.145Z,56.38
2023-04-09T07:29:38.560Z,48.80
2023-04-09T07:34:39.981Z,52.03
2023-04-09T07:39:42.593Z,53.55
2023-04-09T07:44:44.086Z,62.15
2023-04-09T07:49:45.507Z,53.50
2023-04-09T07:54:46.945Z,55.58
2023-04-09T07:59:48.724Z,56.90
2023-04-09T08:04:50.761Z,53.90
2023-04-09T08:09:52.303Z,51.72
2023-04-09T08:14:53.744Z,55.30
2023-04-09T08:19:55.176Z,59.97
2023-04-09T08:24:58.021Z,51.65
2023-04-09T08:29:59.593Z,53.45
2023-04-09T08:35:01.025Z,52.38
2023-04-09T08:40:02.953Z,49.67
2023-04-09T08:45:05.434Z,56.70
2023-04-09T08:50:07.191Z,50.85
2023-04-09T08:55:11.592Z,49.95
2023-04-09T09:00:13.412Z,47.55
2023-04-09T09:05:14.901Z,50.58
2023-04-09T09:10:17.190Z,54.17
2023-04-09T09:15:29.370Z,47.50
2023-04-09T09:20:30.794Z,50.95
2023-04-09T09:25:38.380Z,50.03
2023-04-09T09:30:41.026Z,47.75
2023-04-09T09:35:49.161Z,45.88
2023-04-09T09:40:50.648Z,48.30
2023-04-09T09:45:53.427Z,47.85
2023-04-09T09:50:55.183Z,49.08
2023-04-09T09:56:00.003Z,47.15
2023-04-09T10:01:02.947Z,49.30
2023-04-09T10:06:04.698Z,53.88
2023-04-09T10:11:07.781Z,43.88
2023-04-09T10:16:09.813Z,44.33
2023-04-09T10:21:30.683Z,47.10
2023-04-09T10:26:36.631Z,51.67
2023-04-09T10:32:05.057Z,59.85
2023-04-09T10:37:14.219Z,59.27
2023-04-09T10:42:24.774Z,75.70
2023-04-09T10:47:34.611Z,67.63
2023-04-09T10:52:40.930Z,68.47
2023-04-09T10:57:43.045Z,58.50
2023-04-09T11:03:02.886Z,46.67
2023-04-09T11:08:07.727Z,52.35
2023-04-09T11:13:16.162Z,48.33
2023-04-09T11:18:22.939Z,46.77
2023-04-09T11:23:25.352Z,40.13
2023-04-09T11:28:26.958Z,45.95
2023-04-09T11:33:33.257Z,42.60
2023-04-09T11:38:37.057Z,42.45
2023-04-09T11:43:38.539Z,42.65
2023-04-09T11:48:40.343Z,46.97
2023-04-09T11:53:41.961Z,49.22
2023-04-09T11:58:47.976Z,43.38
2023-04-09T12:03:56.266Z,45.25
2023-04-09T12:08:59.260Z,46.63
2023-04-09T12:14:04.905Z,45.72
2023-04-09T12:19:08.092Z,42.67
2023-04-09T12:24:09.519Z,45.20
2023-04-09T12:29:10.967Z,45.45
2023-04-09T12:34:12.670Z,44.88
2023-04-09T12:39:14.138Z,43.45
2023-04-09T12:44:15.663Z,41.88
2023-04-09T12:49:17.083Z,43.50
2023-04-09T12:54:18.555Z,44.70
2023-04-09T12:59:20.004Z,44.20
2023-04-09T13:04:21.502Z,45.40
2023-04-09T13:09:23.065Z,45.58
2023-04-09T13:14:24.485Z,43.78
2023-04-09T13:19:26.100Z,43.85
2023-04-09T13:24:27.760Z,43.85
2023-04-09T13:29:29.450Z,45.55
2023-04-09T13:34:30.964Z,51.72
2023-04-09T13:39:32.888Z,50.47
2023-04-09T13:44:35.181Z,49.17
2023-04-09T13:49:36.691Z,44.65
2023-04-09T13:54:38.165Z,46.15
2023-04-09T13:59:41.667Z,47.00
2023-04-09T14:04:43.273Z,45.00
2023-04-09T14:09:44.893Z,47.88
2023-04-09T14:14:46.342Z,45.95
2023-04-09T14:19:47.818Z,46.83
2023-04-09T14:24:49.360Z,47.17
2023-04-09T14:29:50.934Z,49.30
2023-04-09T14:34:52.350Z,50.20
2023-04-09T14:39:53.770Z,42.33
2023-04-09T14:44:55.251Z,50.22
2023-04-09T14:49:56.689Z,55.35
2023-04-09T14:54:58.799Z,47.45
2023-04-09T15:00:00.256Z,46.80
2023-04-09T15:05:02.878Z,47.75
2023-04-09T15:10:04.766Z,46.25
2023-04-09T15:15:07.846Z,44.80
2023-04-09T15:20:09.645Z,52.20
2023-04-09T15:25:13.096Z,51.78
2023-04-09T15:30:15.720Z,48.83
2023-04-09T15:35:23.951Z,46.67
2023-04-09T15:40:26.120Z,44.85
2023-04-09T15:45:27.591Z,50.33
2023-04-09T15:50:29.050Z,54.13
2023-04-09T15:55:30.745Z,46.95
2023-04-09T16:00:32.201Z,46.63
2023-04-09T16:05:33.647Z,44.65
2023-04-09T16:10:35.106Z,47.17
2023-04-09T16:15:36.562Z,44.92
2023-04-09T16:20:37.986Z,46.22
2023-04-09T16:25:39.398Z,54.03
2023-04-09T16:30:40.914Z,89.38
2023-04-09T16:35:42.823Z,85.60
2023-04-09T16:40:44.383Z,70.40
2023-04-09T16:45:46.572Z,49.63
2023-04-09T16:50:48.126Z,60.45
2023-04-09T16:55:50.045Z,55.25
2023-04-09T17:00:52.225Z,53.33
2023-04-09T17:05:53.880Z,57.97
2023-04-09T17:11:01.926Z,53.50
2023-04-09T17:16:03.821Z,56.92
2023-04-09T17:21:06.755Z,55.38
2023-04-09T17:26:08.351Z,72.18
2023-04-09T17:31:14.487Z,60.83
2023-04-09T17:36:20.265Z,63.85
2023-04-09T17:41:22.661Z,61.85
2023-04-09T17:46:24.474Z,65.25
2023-04-09T17:51:27.036Z,64.40
2023-04-09T17:56:28.453Z,62.08
2023-04-09T18:01:29.985Z,60.63
2023-04-09T18:06:31.547Z,62.53
2023-04-09T18:11:33.086Z,59.53
2023-04-09T18:16:38.044Z,54.55
2023-04-09T18:21:39.518Z,57.70
2023-04-09T18:26:41.078Z,58.90
2023-04-09T18:31:42.700Z,52.70
2023-04-09T18:36:44.253Z,57.08
2023-04-09T18:41:45.775Z,53.63
2023-04-09T18:46:47.264Z,69.05
2023-04-09T18:51:48.750Z,54.45
2023-04-09T18:56:50.264Z,50.88
2023-04-09T19:01:51.864Z,48.20
2023-04-09T19:06:56.559Z,51.53
2023-04-09T19:11:58.191Z,51.78
2023-04-09T19:16:59.837Z,48.40
2023-04-09T19:22:01.731Z,55.00
2023-04-09T19:27:09.579Z,52.17
2023-04-09T19:32:13.252Z,57.75
2023-04-09T19:37:16.380Z,53.10
2023-04-09T19:42:17.813Z,51.15
2023-04-09T19:47:19.433Z,71.80
2023-04-09T19:52:21.489Z,91.45
2023-04-09T19:57:23.019Z,96.65
2023-04-09T20:02:25.355Z,89.13
2023-04-09T20:07:27.245Z,86.78
2023-04-09T20:12:29.544Z,77.60
2023-04-09T20:17:31.119Z,85.20
2023-04-09T20:22:32.806Z,80.70
2023-04-09T20:27:34.812Z,87.72
2023-04-09T20:32:37.625Z,75.22
2023-04-09T20:37:39.234Z,65.18
2023-04-09T20:42:41.327Z,61.05
2023-04-09T20:47:42.967Z,66.25
2023-04-09T20:52:44.721Z,62.40
2023-04-09T20:57:46.471Z,150.88
2023-04-09T21:02:48.134Z,76.72
2023-04-09T21:07:50.003Z,54.42
2023-04-09T21:12:51.486Z,59.55
2023-04-09T21:17:53.001Z,51.03
2023-04-09T21:22:54.521Z,64.55
2023-04-09T21:27:55.994Z,64.30
2023-04-09T21:32:59.592Z,71.40
2023-04-09T21:38:02.875Z,70.20
2023-04-09T21:43:04.320Z,76.38
2023-04-09T21:48:07.125Z,75.40
2023-04-09T21:53:08.891Z,85.05
2023-04-09T21:58:11.872Z,81.07
2023-04-09T22:03:13.504Z,95.22
2023-04-09T22:08:14.985Z,77.30
2023-04-09T22:13:16.446Z,70.55
2023-04-09T22:18:17.898Z,66.07
2023-04-09T22:23:19.313Z,67.55
2023-04-09T22:28:20.774Z,67.15
2023-04-09T22:33:22.180Z,64.93
2023-04-09T22:38:23.998Z,62.20
2023-04-09T22:43:25.528Z,60.85
2023-04-09T22:48:27.183Z,73.60
2023-04-09T22:53:28.657Z,80.63
2023-04-09T22:58:30.060Z,88.68
2023-04-09T23:03:32.148Z,93.07
2023-04-09T23:08:33.589Z,99.30
2023-04-09T23:13:35.042Z,90.88
2023-04-09T23:18:37.138Z,69.28
2023-04-09T23:23:39.138Z,70.45
2023-04-09T23:28:40.972Z,64.25
2023-04-09T23:33:42.494Z,65.85
2023-04-09T23:38:46.840Z,61.30
2023-04-09T23:43:48.261Z,61.08
2023-04-09T23:48:49.714Z,61.67
2023-04-09T23:53:51.513Z,63.50
2023-04-09T23:58:53.201Z,59.92
